sensor_id;sensor_type;location;lat;lon;timestamp;P1;durP1;ratioP1;P2;durP2;ratioP2
15679;SDS011;15488;48.114;11.532;2023-06-14T00:01:59;3.80;;;3.33;;
15679;SDS011;15488;48.114;11.532;2023-06-14T00:04:26;6.47;;;3.97;;
15679;SDS011;15488;48.114;11.532;2023-06-14T00:06:55;4.10;;;3.40;;
15679;SDS011;15488;48.114;11.532;2023-06-14T00:09:22;3.90;;;3.43;;
15679;SDS011;15488;48.114;11.532;2023-06-14T00:11:50;4.63;;;3.53;;
15679;SDS011;15488;48.114;11.532;2023-06-14T00:14:17;3.93;;;3.33;;
15679;SDS011;15488;48.114;11.532;2023-06-14T00:16:45;4.00;;;3.60;;
15679;SDS011;15488;48.114;11.532;2023-06-14T00:19:14;4.50;;;3.83;;
15679;SDS011;15488;48.114;11.532;2023-06-14T00:21:41;4.87;;;3.50;;
15679;SDS011;15488;48.114;11.532;2023-06-14T00:24:09;4.83;;;3.70;;
15679;SDS011;15488;48.114;11.532;2023-06-14T00:26:36;3.77;;;3.10;;
15679;SDS011;15488;48.114;11.532;2023-06-14T00:29:04;4.47;;;3.50;;
15679;SDS011;15488;48.114;11.532;2023-06-14T00:31:31;5.27;;;3.27;;
15679;SDS011;15488;48.114;11.532;2023-06-14T00:33:59;3.67;;;3.20;;
15679;SDS011;15488;48.114;11.532;2023-06-14T00:36:28;5.70;;;3.70;;
15679;SDS011;15488;48.114;11.532;2023-06-14T00:38:55;3.80;;;3.17;;
15679;SDS011;15488;48.114;11.532;2023-06-14T00:41:23;3.90;;;3.53;;
15679;SDS011;15488;48.114;11.532;2023-06-14T00:43:50;3.93;;;3.50;;
15679;SDS011;15488;48.114;11.532;2023-06-14T00:46:20;3.97;;;3.57;;
15679;SDS011;15488;48.114;11.532;2023-06-14T00:48:48;3.67;;;3.37;;
15679;SDS011;15488;48.114;11.532;2023-06-14T00:51:16;4.80;;;3.30;;
15679;SDS011;15488;48.114;11.532;2023-06-14T00:53:45;3.33;;;3.03;;
15679;SDS011;15488;48.114;11.532;2023-06-14T00:56:13;4.40;;;3.40;;
15679;SDS011;15488;48.114;11.532;2023-06-14T00:58:40;3.90;;;3.07;;
15679;SDS011;15488;48.114;11.532;2023-06-14T01:01:09;6.20;;;3.50;;
15679;SDS011;15488;48.114;11.532;2023-06-14T01:03:37;5.10;;;3.40;;
15679;SDS011;15488;48.114;11.532;2023-06-14T01:06:06;4.00;;;3.40;;
15679;SDS011;15488;48.114;11.532;2023-06-14T01:08:44;3.77;;;3.30;;
15679;SDS011;15488;48.114;11.532;2023-06-14T01:11:19;3.90;;;3.40;;
15679;SDS011;15488;48.114;11.532;2023-06-14T01:13:51;5.93;;;3.13;;
15679;SDS011;15488;48.114;11.532;2023-06-14T01:16:19;4.97;;;3.60;;
15679;SDS011;15488;48.114;11.532;2023-06-14T01:18:47;3.37;;;3.07;;
15679;SDS011;15488;48.114;11.532;2023-06-14T01:21:21;4.20;;;3.57;;
15679;SDS011;15488;48.114;11.532;2023-06-14T01:23:51;4.53;;;3.33;;
15679;SDS011;15488;48.114;11.532;2023-06-14T01:26:19;4.10;;;3.50;;
15679;SDS011;15488;48.114;11.532;2023-06-14T01:28:48;3.70;;;3.30;;
15679;SDS011;15488;48.114;11.532;2023-06-14T01:31:18;5.13;;;3.37;;
15679;SDS011;15488;48.114;11.532;2023-06-14T01:33:47;4.57;;;3.50;;
15679;SDS011;15488;48.114;11.532;2023-06-14T01:36:16;3.53;;;3.20;;
15679;SDS011;15488;48.114;11.532;2023-06-14T01:38:45;4.33;;;3.10;;
15679;SDS011;15488;48.114;11.532;2023-06-14T01:41:16;4.37;;;3.53;;
15679;SDS011;15488;48.114;11.532;2023-06-14T01:43:45;4.30;;;3.27;;
15679;SDS011;15488;48.114;11.532;2023-06-14T01:46:14;4.87;;;3.30;;
15679;SDS011;15488;48.114;11.532;2023-06-14T01:48:42;3.50;;;3.20;;
15679;SDS011;15488;48.114;11.532;2023-06-14T01:51:10;4.57;;;3.20;;
15679;SDS011;15488;48.114;11.532;2023-06-14T01:53:38;4.03;;;3.40;;
15679;SDS011;15488;48.114;11.532;2023-06-14T01:56:06;5.27;;;3.27;;
15679;SDS011;15488;48.114;11.532;2023-06-14T01:58:35;3.73;;;3.10;;
15679;SDS011;15488;48.114;11.532;2023-06-14T02:01:02;3.70;;;3.30;;
15679;SDS011;15488;48.114;11.532;2023-06-14T02:03:30;4.80;;;3.40;;
15679;SDS011;15488;48.114;11.532;2023-06-14T02:05:57;3.63;;;3.33;;
15679;SDS011;15488;48.114;11.532;2023-06-14T02:08:25;3.53;;;3.23;;
15679;SDS011;15488;48.114;11.532;2023-06-14T02:10:52;3.67;;;3.33;;
15679;SDS011;15488;48.114;11.532;2023-06-14T02:13:20;4.70;;;3.10;;
15679;SDS011;15488;48.114;11.532;2023-06-14T02:15:49;4.40;;;3.20;;
15679;SDS011;15488;48.114;11.532;2023-06-14T02:18:19;4.70;;;3.40;;
15679;SDS011;15488;48.114;11.532;2023-06-14T02:20:47;4.37;;;3.20;;
15679;SDS011;15488;48.114;11.532;2023-06-14T02:23:14;4.83;;;3.40;;
15679;SDS011;15488;48.114;11.532;2023-06-14T02:25:42;4.37;;;3.50;;
15679;SDS011;15488;48.114;11.532;2023-06-14T02:28:10;3.67;;;3.20;;
15679;SDS011;15488;48.114;11.532;2023-06-14T02:30:37;4.50;;;3.53;;
15679;SDS011;15488;48.114;11.532;2023-06-14T02:33:07;4.57;;;3.60;;
15679;SDS011;15488;48.114;11.532;2023-06-14T02:35:37;4.20;;;3.37;;
15679;SDS011;15488;48.114;11.532;2023-06-14T02:38:04;3.70;;;3.30;;
15679;SDS011;15488;48.114;11.532;2023-06-14T02:40:32;4.30;;;3.10;;
15679;SDS011;15488;48.114;11.532;2023-06-14T02:42:59;4.13;;;3.30;;
15679;SDS011;15488;48.114;11.532;2023-06-14T02:45:27;4.30;;;3.47;;
15679;SDS011;15488;48.114;11.532;2023-06-14T02:47:54;4.53;;;3.53;;
15679;SDS011;15488;48.114;11.532;2023-06-14T02:50:23;4.10;;;3.50;;
15679;SDS011;15488;48.114;11.532;2023-06-14T02:52:51;5.10;;;3.47;;
15679;SDS011;15488;48.114;11.532;2023-06-14T02:55:21;4.83;;;3.33;;
15679;SDS011;15488;48.114;11.532;2023-06-14T02:57:48;3.80;;;3.37;;
15679;SDS011;15488;48.114;11.532;2023-06-14T03:00:16;3.50;;;3.20;;
15679;SDS011;15488;48.114;11.532;2023-06-14T03:02:44;3.50;;;3.20;;
15679;SDS011;15488;48.114;11.532;2023-06-14T03:05:12;4.13;;;3.23;;
15679;SDS011;15488;48.114;11.532;2023-06-14T03:07:40;4.33;;;3.03;;
15679;SDS011;15488;48.114;11.532;2023-06-14T03:10:10;3.50;;;3.20;;
15679;SDS011;15488;48.114;11.532;2023-06-14T03:12:38;3.83;;;3.27;;
15679;SDS011;15488;48.114;11.532;2023-06-14T03:15:06;4.00;;;3.33;;
15679;SDS011;15488;48.114;11.532;2023-06-14T03:17:34;3.57;;;3.27;;
15679;SDS011;15488;48.114;11.532;2023-06-14T03:20:04;4.57;;;3.60;;
15679;SDS011;15488;48.114;11.532;2023-06-14T03:22:33;3.90;;;3.50;;
15679;SDS011;15488;48.114;11.532;2023-06-14T03:25:02;4.80;;;3.63;;
15679;SDS011;15488;48.114;11.532;2023-06-14T03:27:30;3.63;;;3.27;;
15679;SDS011;15488;48.114;11.532;2023-06-14T03:29:58;4.30;;;3.60;;
15679;SDS011;15488;48.114;11.532;2023-06-14T03:32:25;3.93;;;3.53;;
15679;SDS011;15488;48.114;11.532;2023-06-14T03:34:53;3.87;;;3.47;;
15679;SDS011;15488;48.114;11.532;2023-06-14T03:37:20;5.50;;;3.73;;
15679;SDS011;15488;48.114;11.532;2023-06-14T03:39:48;3.87;;;3.47;;
15679;SDS011;15488;48.114;11.532;2023-06-14T03:42:17;4.70;;;3.60;;
15679;SDS011;15488;48.114;11.532;2023-06-14T03:44:44;4.93;;;3.60;;
15679;SDS011;15488;48.114;11.532;2023-06-14T03:47:11;4.07;;;3.67;;
15679;SDS011;15488;48.114;11.532;2023-06-14T03:49:40;3.97;;;3.40;;
15679;SDS011;15488;48.114;11.532;2023-06-14T03:52:07;5.17;;;3.53;;
15679;SDS011;15488;48.114;11.532;2023-06-14T03:54:35;4.03;;;3.40;;
15679;SDS011;15488;48.114;11.532;2023-06-14T03:57:02;3.97;;;3.57;;
15679;SDS011;15488;48.114;11.532;2023-06-14T03:59:32;4.53;;;3.47;;
15679;SDS011;15488;48.114;11.532;2023-06-14T04:02:00;4.17;;;3.47;;
15679;SDS011;15488;48.114;11.532;2023-06-14T04:04:27;4.77;;;3.47;;
15679;SDS011;15488;48.114;11.532;2023-06-14T04:06:55;4.10;;;3.57;;
15679;SDS011;15488;48.114;11.532;2023-06-14T04:09:23;3.67;;;3.20;;
15679;SDS011;15488;48.114;11.532;2023-06-14T04:11:51;4.50;;;3.63;;
15679;SDS011;15488;48.114;11.532;2023-06-14T04:14:18;4.30;;;3.57;;
15679;SDS011;15488;48.114;11.532;2023-06-14T04:16:47;4.20;;;3.27;;
15679;SDS011;15488;48.114;11.532;2023-06-14T04:19:15;3.80;;;3.40;;
15679;SDS011;15488;48.114;11.532;2023-06-14T04:21:43;4.00;;;3.60;;
15679;SDS011;15488;48.114;11.532;2023-06-14T04:24:10;5.50;;;3.80;;
15679;SDS011;15488;48.114;11.532;2023-06-14T04:26:38;5.20;;;3.93;;
15679;SDS011;15488;48.114;11.532;2023-06-14T04:29:06;4.00;;;3.60;;
15679;SDS011;15488;48.114;11.532;2023-06-14T04:31:33;5.87;;;3.80;;
15679;SDS011;15488;48.114;11.532;2023-06-14T04:34:04;5.13;;;3.50;;
15679;SDS011;15488;48.114;11.532;2023-06-14T04:36:31;5.00;;;3.80;;
15679;SDS011;15488;48.114;11.532;2023-06-14T04:39:02;5.50;;;3.90;;
15679;SDS011;15488;48.114;11.532;2023-06-14T04:41:29;6.00;;;3.97;;
15679;SDS011;15488;48.114;11.532;2023-06-14T04:43:57;5.37;;;3.93;;
15679;SDS011;15488;48.114;11.532;2023-06-14T04:46:26;5.87;;;4.27;;
15679;SDS011;15488;48.114;11.532;2023-06-14T04:48:55;5.87;;;4.03;;
15679;SDS011;15488;48.114;11.532;2023-06-14T04:51:24;4.40;;;3.90;;
15679;SDS011;15488;48.114;11.532;2023-06-14T04:53:55;5.50;;;3.90;;
15679;SDS011;15488;48.114;11.532;2023-06-14T04:56:23;5.23;;;3.80;;
15679;SDS011;15488;48.114;11.532;2023-06-14T04:58:51;5.53;;;4.17;;
15679;SDS011;15488;48.114;11.532;2023-06-14T05:01:21;6.47;;;3.70;;
15679;SDS011;15488;48.114;11.532;2023-06-14T05:03:49;4.67;;;3.67;;
15679;SDS011;15488;48.114;11.532;2023-06-14T05:06:17;7.73;;;3.93;;
15679;SDS011;15488;48.114;11.532;2023-06-14T05:08:46;3.97;;;3.57;;
15679;SDS011;15488;48.114;11.532;2023-06-14T05:11:13;4.50;;;3.70;;
15679;SDS011;15488;48.114;11.532;2023-06-14T05:13:42;3.77;;;3.37;;
15679;SDS011;15488;48.114;11.532;2023-06-14T05:16:10;10.80;;;4.33;;
15679;SDS011;15488;48.114;11.532;2023-06-14T05:18:37;8.23;;;6.17;;
15679;SDS011;15488;48.114;11.532;2023-06-14T05:21:05;7.63;;;5.53;;
15679;SDS011;15488;48.114;11.532;2023-06-14T05:23:33;4.53;;;3.80;;
15679;SDS011;15488;48.114;11.532;2023-06-14T05:26:02;5.13;;;3.87;;
15679;SDS011;15488;48.114;11.532;2023-06-14T05:28:31;5.07;;;3.47;;
15679;SDS011;15488;48.114;11.532;2023-06-14T05:30:59;4.00;;;3.57;;
15679;SDS011;15488;48.114;11.532;2023-06-14T05:33:26;5.70;;;3.47;;
15679;SDS011;15488;48.114;11.532;2023-06-14T05:35:54;5.00;;;4.30;;
15679;SDS011;15488;48.114;11.532;2023-06-14T05:38:21;6.40;;;4.60;;
15679;SDS011;15488;48.114;11.532;2023-06-14T05:40:49;5.30;;;3.97;;
15679;SDS011;15488;48.114;11.532;2023-06-14T05:43:17;3.47;;;3.10;;
15679;SDS011;15488;48.114;11.532;2023-06-14T05:45:45;5.80;;;3.37;;
15679;SDS011;15488;48.114;11.532;2023-06-14T05:48:12;5.87;;;3.47;;
15679;SDS011;15488;48.114;11.532;2023-06-14T05:50:40;6.13;;;3.47;;
15679;SDS011;15488;48.114;11.532;2023-06-14T05:53:07;4.67;;;3.47;;
15679;SDS011;15488;48.114;11.532;2023-06-14T05:55:35;5.07;;;3.53;;
15679;SDS011;15488;48.114;11.532;2023-06-14T05:58:02;3.67;;;3.33;;
15679;SDS011;15488;48.114;11.532;2023-06-14T06:00:31;4.53;;;3.90;;
15679;SDS011;15488;48.114;11.532;2023-06-14T06:02:58;4.60;;;3.77;;
15679;SDS011;15488;48.114;11.532;2023-06-14T06:05:26;4.17;;;3.43;;
15679;SDS011;15488;48.114;11.532;2023-06-14T06:07:53;5.57;;;3.87;;
15679;SDS011;15488;48.114;11.532;2023-06-14T06:10:21;4.23;;;3.50;;
15679;SDS011;15488;48.114;11.532;2023-06-14T06:12:48;5.80;;;3.63;;
15679;SDS011;15488;48.114;11.532;2023-06-14T06:15:17;4.60;;;3.57;;
15679;SDS011;15488;48.114;11.532;2023-06-14T06:17:46;5.97;;;4.00;;
15679;SDS011;15488;48.114;11.532;2023-06-14T06:20:13;5.83;;;3.97;;
15679;SDS011;15488;48.114;11.532;2023-06-14T06:22:42;4.00;;;3.60;;
15679;SDS011;15488;48.114;11.532;2023-06-14T06:25:10;5.00;;;3.47;;
15679;SDS011;15488;48.114;11.532;2023-06-14T06:27:38;6.00;;;3.60;;
15679;SDS011;15488;48.114;11.532;2023-06-14T06:30:06;5.63;;;3.67;;
15679;SDS011;15488;48.114;11.532;2023-06-14T06:32:34;7.40;;;4.10;;
15679;SDS011;15488;48.114;11.532;2023-06-14T06:35:03;6.00;;;3.87;;
15679;SDS011;15488;48.114;11.532;2023-06-14T06:37:32;6.43;;;3.93;;
15679;SDS011;15488;48.114;11.532;2023-06-14T06:40:00;5.20;;;3.27;;
15679;SDS011;15488;48.114;11.532;2023-06-14T06:42:28;4.70;;;3.53;;
15679;SDS011;15488;48.114;11.532;2023-06-14T06:44:56;10.37;;;4.80;;
15679;SDS011;15488;48.114;11.532;2023-06-14T06:47:24;7.83;;;4.57;;
15679;SDS011;15488;48.114;11.532;2023-06-14T06:49:51;8.97;;;4.83;;
15679;SDS011;15488;48.114;11.532;2023-06-14T06:52:20;8.00;;;5.07;;
15679;SDS011;15488;48.114;11.532;2023-06-14T06:54:47;9.70;;;4.80;;
15679;SDS011;15488;48.114;11.532;2023-06-14T06:57:19;5.43;;;3.83;;
15679;SDS011;15488;48.114;11.532;2023-06-14T06:59:47;5.00;;;3.60;;
15679;SDS011;15488;48.114;11.532;2023-06-14T07:02:15;5.17;;;3.43;;
15679;SDS011;15488;48.114;11.532;2023-06-14T07:04:43;7.80;;;5.00;;
15679;SDS011;15488;48.114;11.532;2023-06-14T07:07:10;8.47;;;5.70;;
15679;SDS011;15488;48.114;11.532;2023-06-14T07:09:39;9.03;;;5.53;;
15679;SDS011;15488;48.114;11.532;2023-06-14T07:12:07;13.07;;;6.73;;
15679;SDS011;15488;48.114;11.532;2023-06-14T07:14:35;10.17;;;6.17;;
15679;SDS011;15488;48.114;11.532;2023-06-14T07:17:03;8.07;;;5.30;;
15679;SDS011;15488;48.114;11.532;2023-06-14T07:19:31;7.47;;;5.27;;
15679;SDS011;15488;48.114;11.532;2023-06-14T07:21:58;5.03;;;3.90;;
15679;SDS011;15488;48.114;11.532;2023-06-14T07:24:25;4.97;;;4.30;;
15679;SDS011;15488;48.114;11.532;2023-06-14T07:26:55;10.33;;;4.60;;
15679;SDS011;15488;48.114;11.532;2023-06-14T07:29:23;8.23;;;5.10;;
15679;SDS011;15488;48.114;11.532;2023-06-14T07:31:51;8.40;;;4.27;;
15679;SDS011;15488;48.114;11.532;2023-06-14T07:34:19;7.97;;;3.83;;
15679;SDS011;15488;48.114;11.532;2023-06-14T07:36:46;5.27;;;3.77;;
15679;SDS011;15488;48.114;11.532;2023-06-14T07:39:13;4.53;;;3.73;;
15679;SDS011;15488;48.114;11.532;2023-06-14T07:41:41;7.77;;;4.20;;
15679;SDS011;15488;48.114;11.532;2023-06-14T07:44:10;6.57;;;3.93;;
15679;SDS011;15488;48.114;11.532;2023-06-14T07:46:38;5.30;;;3.80;;
15679;SDS011;15488;48.114;11.532;2023-06-14T07:49:06;7.63;;;4.70;;
15679;SDS011;15488;48.114;11.532;2023-06-14T07:51:33;5.90;;;4.27;;
15679;SDS011;15488;48.114;11.532;2023-06-14T07:54:01;6.20;;;3.47;;
15679;SDS011;15488;48.114;11.532;2023-06-14T07:56:29;7.10;;;4.03;;
15679;SDS011;15488;48.114;11.532;2023-06-14T07:58:57;6.33;;;4.83;;
15679;SDS011;15488;48.114;11.532;2023-06-14T08:01:26;8.07;;;5.13;;
15679;SDS011;15488;48.114;11.532;2023-06-14T08:03:53;6.73;;;4.33;;
15679;SDS011;15488;48.114;11.532;2023-06-14T08:06:20;9.07;;;4.50;;
15679;SDS011;15488;48.114;11.532;2023-06-14T08:08:48;7.77;;;5.50;;
15679;SDS011;15488;48.114;11.532;2023-06-14T08:11:15;5.77;;;3.70;;
15679;SDS011;15488;48.114;11.532;2023-06-14T08:13:43;3.40;;;3.10;;
15679;SDS011;15488;48.114;11.532;2023-06-14T08:16:10;4.03;;;2.93;;
15679;SDS011;15488;48.114;11.532;2023-06-14T08:18:39;4.20;;;2.87;;
15679;SDS011;15488;48.114;11.532;2023-06-14T08:21:07;3.40;;;2.80;;
15679;SDS011;15488;48.114;11.532;2023-06-14T08:23:34;4.30;;;2.83;;
15679;SDS011;15488;48.114;11.532;2023-06-14T08:26:02;12.83;;;3.63;;
15679;SDS011;15488;48.114;11.532;2023-06-14T08:28:29;4.93;;;3.17;;
15679;SDS011;15488;48.114;11.532;2023-06-14T08:30:57;5.97;;;3.00;;
15679;SDS011;15488;48.114;11.532;2023-06-14T08:33:24;5.07;;;2.90;;
15679;SDS011;15488;48.114;11.532;2023-06-14T08:35:53;4.50;;;2.70;;
15679;SDS011;15488;48.114;11.532;2023-06-14T08:38:20;3.30;;;2.47;;
15679;SDS011;15488;48.114;11.532;2023-06-14T08:40:49;2.97;;;2.63;;
15679;SDS011;15488;48.114;11.532;2023-06-14T08:43:18;3.53;;;2.37;;
15679;SDS011;15488;48.114;11.532;2023-06-14T08:45:46;10.07;;;3.20;;
15679;SDS011;15488;48.114;11.532;2023-06-14T08:48:15;3.80;;;2.80;;
15679;SDS011;15488;48.114;11.532;2023-06-14T08:50:46;5.83;;;3.07;;
15679;SDS011;15488;48.114;11.532;2023-06-14T08:53:16;17.90;;;3.53;;
15679;SDS011;15488;48.114;11.532;2023-06-14T08:55:44;4.73;;;3.17;;
15679;SDS011;15488;48.114;11.532;2023-06-14T08:58:12;6.70;;;3.40;;
15679;SDS011;15488;48.114;11.532;2023-06-14T09:00:41;11.83;;;3.70;;
15679;SDS011;15488;48.114;11.532;2023-06-14T09:03:09;9.03;;;3.40;;
15679;SDS011;15488;48.114;11.532;2023-06-14T09:05:38;6.67;;;3.43;;
15679;SDS011;15488;48.114;11.532;2023-06-14T09:08:05;10.00;;;4.13;;
15679;SDS011;15488;48.114;11.532;2023-06-14T09:10:34;9.00;;;2.80;;
15679;SDS011;15488;48.114;11.532;2023-06-14T09:13:02;3.77;;;2.73;;
15679;SDS011;15488;48.114;11.532;2023-06-14T09:15:30;3.70;;;3.03;;
15679;SDS011;15488;48.114;11.532;2023-06-14T09:17:57;7.70;;;2.80;;
15679;SDS011;15488;48.114;11.532;2023-06-14T09:20:28;2.97;;;2.67;;
15679;SDS011;15488;48.114;11.532;2023-06-14T09:22:56;3.73;;;3.00;;
15679;SDS011;15488;48.114;11.532;2023-06-14T09:25:25;7.57;;;3.50;;
15679;SDS011;15488;48.114;11.532;2023-06-14T09:27:54;9.50;;;3.23;;
15679;SDS011;15488;48.114;11.532;2023-06-14T09:30:22;10.87;;;3.30;;
15679;SDS011;15488;48.114;11.532;2023-06-14T09:32:49;3.20;;;2.90;;
15679;SDS011;15488;48.114;11.532;2023-06-14T09:35:17;3.90;;;3.20;;
15679;SDS011;15488;48.114;11.532;2023-06-14T09:37:47;3.73;;;2.87;;
15679;SDS011;15488;48.114;11.532;2023-06-14T09:40:15;4.70;;;3.20;;
15679;SDS011;15488;48.114;11.532;2023-06-14T09:42:47;7.10;;;3.50;;
15679;SDS011;15488;48.114;11.532;2023-06-14T09:45:16;8.10;;;3.20;;
15679;SDS011;15488;48.114;11.532;2023-06-14T09:47:46;5.80;;;3.37;;
15679;SDS011;15488;48.114;11.532;2023-06-14T09:50:15;3.23;;;3.00;;
15679;SDS011;15488;48.114;11.532;2023-06-14T09:52:42;4.03;;;2.83;;
15679;SDS011;15488;48.114;11.532;2023-06-14T09:55:12;4.50;;;2.83;;
15679;SDS011;15488;48.114;11.532;2023-06-14T09:57:41;3.63;;;2.80;;
15679;SDS011;15488;48.114;11.532;2023-06-14T10:00:12;4.43;;;2.77;;
15679;SDS011;15488;48.114;11.532;2023-06-14T10:02:42;4.03;;;3.23;;
15679;SDS011;15488;48.114;11.532;2023-06-14T10:05:16;3.63;;;3.30;;
15679;SDS011;15488;48.114;11.532;2023-06-14T10:07:48;4.70;;;3.33;;
15679;SDS011;15488;48.114;11.532;2023-06-14T10:10:18;6.10;;;3.75;;
15679;SDS011;15488;48.114;11.532;2023-06-14T10:12:46;6.80;;;4.00;;
15679;SDS011;15488;48.114;11.532;2023-06-14T10:15:15;4.27;;;3.73;;
15679;SDS011;15488;48.114;11.532;2023-06-14T10:17:48;5.53;;;4.10;;
15679;SDS011;15488;48.114;11.532;2023-06-14T10:20:23;4.90;;;4.50;;
15679;SDS011;15488;48.114;11.532;2023-06-14T10:22:58;4.27;;;3.87;;
15679;SDS011;15488;48.114;11.532;2023-06-14T10:25:30;3.30;;;3.00;;
15679;SDS011;15488;48.114;11.532;2023-06-14T10:28:03;6.53;;;3.30;;
15679;SDS011;15488;48.114;11.532;2023-06-14T10:33:31;3.80;;;3.20;;
15679;SDS011;15488;48.114;11.532;2023-06-14T10:36:09;3.13;;;2.92;;
15679;SDS011;15488;48.114;11.532;2023-06-14T10:38:58;3.80;;;3.30;;
15679;SDS011;15488;48.114;11.532;2023-06-14T10:41:27;6.00;;;3.50;;
15679;SDS011;15488;48.114;11.532;2023-06-14T10:47:24;4.72;;;3.20;;
15679;SDS011;15488;48.114;11.532;2023-06-14T10:49:54;3.47;;;3.15;;
15679;SDS011;15488;48.114;11.532;2023-06-14T10:52:25;4.28;;;3.40;;
15679;SDS011;15488;48.114;11.532;2023-06-14T10:55:01;3.80;;;3.50;;
15679;SDS011;15488;48.114;11.532;2023-06-14T10:57:31;3.85;;;3.50;;
15679;SDS011;15488;48.114;11.532;2023-06-14T10:59:59;3.75;;;3.30;;
15679;SDS011;15488;48.114;11.532;2023-06-14T11:06:01;3.67;;;3.38;;
15679;SDS011;15488;48.114;11.532;2023-06-14T11:08:40;3.83;;;3.42;;
15679;SDS011;15488;48.114;11.532;2023-06-14T11:11:37;12.05;;;3.40;;
15679;SDS011;15488;48.114;11.532;2023-06-14T11:14:08;3.78;;;3.47;;
15679;SDS011;15488;48.114;11.532;2023-06-14T11:16:36;4.40;;;3.55;;
15679;SDS011;15488;48.114;11.532;2023-06-14T11:19:03;4.63;;;3.40;;
15679;SDS011;15488;48.114;11.532;2023-06-14T11:21:33;5.10;;;3.60;;
15679;SDS011;15488;48.114;11.532;2023-06-14T11:24:00;3.97;;;3.40;;
15679;SDS011;15488;48.114;11.532;2023-06-14T11:26:28;3.88;;;3.58;;
15679;SDS011;15488;48.114;11.532;2023-06-14T11:29:00;5.20;;;3.60;;
15679;SDS011;15488;48.114;11.532;2023-06-14T11:31:27;6.32;;;3.28;;
15679;SDS011;15488;48.114;11.532;2023-06-14T11:33:55;3.63;;;3.33;;
15679;SDS011;15488;48.114;11.532;2023-06-14T11:36:26;7.55;;;3.88;;
15679;SDS011;15488;48.114;11.532;2023-06-14T11:38:59;5.00;;;3.70;;
15679;SDS011;15488;48.114;11.532;2023-06-14T11:41:36;4.70;;;3.97;;
15679;SDS011;15488;48.114;11.532;2023-06-14T11:44:05;4.82;;;3.85;;
15679;SDS011;15488;48.114;11.532;2023-06-14T11:46:33;6.40;;;4.70;;
15679;SDS011;15488;48.114;11.532;2023-06-14T11:49:00;5.10;;;4.45;;
15679;SDS011;15488;48.114;11.532;2023-06-14T11:51:29;8.15;;;6.30;;
15679;SDS011;15488;48.114;11.532;2023-06-14T11:53:58;8.50;;;6.30;;
15679;SDS011;15488;48.114;11.532;2023-06-14T11:56:27;7.30;;;6.00;;
15679;SDS011;15488;48.114;11.532;2023-06-14T11:58:55;8.68;;;6.05;;
15679;SDS011;15488;48.114;11.532;2023-06-14T12:01:23;10.43;;;6.20;;
15679;SDS011;15488;48.114;11.532;2023-06-14T12:03:52;7.80;;;5.50;;
15679;SDS011;15488;48.114;11.532;2023-06-14T12:06:27;7.00;;;4.70;;
15679;SDS011;15488;48.114;11.532;2023-06-14T12:08:59;5.28;;;4.13;;
15679;SDS011;15488;48.114;11.532;2023-06-14T12:11:31;4.30;;;3.35;;
15679;SDS011;15488;48.114;11.532;2023-06-14T12:13:59;3.90;;;3.60;;
15679;SDS011;15488;48.114;11.532;2023-06-14T12:16:32;4.45;;;3.50;;
15679;SDS011;15488;48.114;11.532;2023-06-14T12:19:00;4.18;;;3.75;;
15679;SDS011;15488;48.114;11.532;2023-06-14T12:21:36;4.65;;;3.95;;
15679;SDS011;15488;48.114;11.532;2023-06-14T12:24:07;4.28;;;3.35;;
15679;SDS011;15488;48.114;11.532;2023-06-14T12:26:37;4.18;;;3.70;;
15679;SDS011;15488;48.114;11.532;2023-06-14T12:29:06;6.20;;;4.05;;
15679;SDS011;15488;48.114;11.532;2023-06-14T12:31:33;3.90;;;3.53;;
15679;SDS011;15488;48.114;11.532;2023-06-14T12:34:01;5.40;;;3.90;;
15679;SDS011;15488;48.114;11.532;2023-06-14T12:36:29;5.25;;;3.35;;
15679;SDS011;15488;48.114;11.532;2023-06-14T12:38:57;4.95;;;3.92;;
15679;SDS011;15488;48.114;11.532;2023-06-14T12:41:26;4.63;;;4.03;;
15679;SDS011;15488;48.114;11.532;2023-06-14T12:43:54;4.25;;;3.55;;
15679;SDS011;15488;48.114;11.532;2023-06-14T12:46:23;4.05;;;3.72;;
15679;SDS011;15488;48.114;11.532;2023-06-14T12:48:50;4.50;;;3.42;;
15679;SDS011;15488;48.114;11.532;2023-06-14T12:51:18;3.78;;;3.33;;
15679;SDS011;15488;48.114;11.532;2023-06-14T12:53:45;5.68;;;4.40;;
15679;SDS011;15488;48.114;11.532;2023-06-14T12:56:14;5.22;;;4.55;;
15679;SDS011;15488;48.114;11.532;2023-06-14T12:58:43;4.70;;;4.25;;
15679;SDS011;15488;48.114;11.532;2023-06-14T13:01:10;4.30;;;3.90;;
15679;SDS011;15488;48.114;11.532;2023-06-14T13:03:37;4.10;;;3.70;;
15679;SDS011;15488;48.114;11.532;2023-06-14T13:06:05;4.32;;;3.92;;
15679;SDS011;15488;48.114;11.532;2023-06-14T13:08:32;4.30;;;3.25;;
15679;SDS011;15488;48.114;11.532;2023-06-14T13:11:00;3.90;;;3.60;;
15679;SDS011;15488;48.114;11.532;2023-06-14T13:13:27;4.07;;;3.67;;
15679;SDS011;15488;48.114;11.532;2023-06-14T13:15:56;4.10;;;3.70;;
15679;SDS011;15488;48.114;11.532;2023-06-14T13:18:24;4.43;;;4.03;;
15679;SDS011;15488;48.114;11.532;2023-06-14T13:20:51;4.03;;;3.70;;
15679;SDS011;15488;48.114;11.532;2023-06-14T13:23:19;4.38;;;3.97;;
15679;SDS011;15488;48.114;11.532;2023-06-14T13:25:46;4.95;;;4.45;;
15679;SDS011;15488;48.114;11.532;2023-06-14T13:28:14;4.32;;;3.88;;
15679;SDS011;15488;48.114;11.532;2023-06-14T13:30:42;4.20;;;3.60;;
15679;SDS011;15488;48.114;11.532;2023-06-14T13:33:11;6.47;;;4.00;;
15679;SDS011;15488;48.114;11.532;2023-06-14T13:35:39;4.45;;;4.05;;
15679;SDS011;15488;48.114;11.532;2023-06-14T13:38:06;5.43;;;3.95;;
15679;SDS011;15488;48.114;11.532;2023-06-14T13:40:35;5.47;;;4.75;;
15679;SDS011;15488;48.114;11.532;2023-06-14T13:43:03;4.18;;;3.78;;
15679;SDS011;15488;48.114;11.532;2023-06-14T13:45:30;4.18;;;3.72;;
15679;SDS011;15488;48.114;11.532;2023-06-14T13:47:58;5.13;;;4.75;;
15679;SDS011;15488;48.114;11.532;2023-06-14T13:50:27;6.10;;;5.60;;
15679;SDS011;15488;48.114;11.532;2023-06-14T13:52:54;6.85;;;6.25;;
15679;SDS011;15488;48.114;11.532;2023-06-14T13:55:21;6.95;;;5.80;;
15679;SDS011;15488;48.114;11.532;2023-06-14T13:57:49;6.35;;;5.95;;
15679;SDS011;15488;48.114;11.532;2023-06-14T14:00:17;7.65;;;7.13;;
15679;SDS011;15488;48.114;11.532;2023-06-14T14:02:45;7.35;;;6.95;;
15679;SDS011;15488;48.114;11.532;2023-06-14T14:05:15;6.63;;;6.32;;
15679;SDS011;15488;48.114;11.532;2023-06-14T14:07:44;7.28;;;6.78;;
15679;SDS011;15488;48.114;11.532;2023-06-14T14:10:12;7.78;;;7.25;;
15679;SDS011;15488;48.114;11.532;2023-06-14T14:12:39;7.22;;;6.82;;
15679;SDS011;15488;48.114;11.532;2023-06-14T14:15:07;7.68;;;7.28;;
15679;SDS011;15488;48.114;11.532;2023-06-14T14:17:37;6.78;;;6.38;;
15679;SDS011;15488;48.114;11.532;2023-06-14T14:20:05;5.43;;;5.03;;
15679;SDS011;15488;48.114;11.532;2023-06-14T14:22:33;4.85;;;4.45;;
15679;SDS011;15488;48.114;11.532;2023-06-14T14:25:02;4.88;;;4.55;;
15679;SDS011;15488;48.114;11.532;2023-06-14T14:27:30;6.10;;;5.00;;
15679;SDS011;15488;48.114;11.532;2023-06-14T14:29:58;5.22;;;4.75;;
15679;SDS011;15488;48.114;11.532;2023-06-14T14:32:25;6.57;;;5.10;;
15679;SDS011;15488;48.114;11.532;2023-06-14T14:34:53;5.70;;;5.30;;
15679;SDS011;15488;48.114;11.532;2023-06-14T14:37:20;5.13;;;4.70;;
15679;SDS011;15488;48.114;11.532;2023-06-14T14:39:47;5.93;;;5.50;;
15679;SDS011;15488;48.114;11.532;2023-06-14T14:42:16;5.60;;;5.20;;
15679;SDS011;15488;48.114;11.532;2023-06-14T14:44:44;5.90;;;5.50;;
15679;SDS011;15488;48.114;11.532;2023-06-14T14:47:12;5.50;;;5.20;;
15679;SDS011;15488;48.114;11.532;2023-06-14T14:49:39;5.18;;;4.88;;
15679;SDS011;15488;48.114;11.532;2023-06-14T14:52:07;5.22;;;4.85;;